• Join FlightAware (Why Join?)
  • Login
  • US Flag GB Flag 
09:20 EST


 

Airport Tracker/Info


-or-


 

Live Flight TrackerFlight Track Log ✈ N749SS ✈ 07-Nov-2013 ✈ CYYZ - CYUL

Flight Track Log - Related Links

Times and Time Zones

All times are in EST time to prevent confusion due to time zone crossing. See the N749SS flight status page for this flight to view local times or setup timezone preferences in your user account.

Time Position Orientation Groundspeed Altitude Reporting Facility
EST Latitude Longitude Course Direction KTS MPH feet Rate Location/Type
17:47 43.6833 -79.6333 360° North 20 23 600  Level Toronto Center
17:49 43.6833 -79.6333 324° Northwest 20 23 600  Level Toronto Center
17:50 43.6833 -79.6167 90° East 10 12 600 150 Level Toronto Center
17:51 43.6667 -79.6333 216° Southwest 70 81 900 1,700 Climbing Toronto Center
17:52 43.6333 -79.6833 227° Southwest 180 207 4,000 3,000 Climbing Toronto Center
17:53 43.6000 -79.7500 235° Southwest 230 265 6,900 1,550 Climbing Toronto Center
17:54 43.5333 -79.7667 190° South 270 311 7,100 50 Climbing Toronto Center
17:55 43.5000 -79.6833 119° Southeast 290 334 7,000 -50 Descending Toronto Center
17:56 43.4833 -79.5667 101° East 290 334 7,000 50 Level Toronto Center
17:57 43.5000 -79.4667 77° East 290 334 7,100 1,250 Climbing Toronto Center
17:58 43.5333 -79.3500 68° East 280 322 9,500 2,950 Climbing Toronto Center
17:59 43.5500 -79.2500 77° East 320 368 13,000 3,600 Climbing Toronto Center
18:00 43.6000 -79.1000 65° Northeast 400 460 16,700 3,450 Climbing Toronto Center
18:01 43.6500 -78.9500 65° Northeast 450 518 19,900 3,750 Climbing Toronto Center
18:02 43.7000 -78.7500 71° East 460 529 24,200 4,050 Climbing Toronto Center
18:03 43.7333 -78.6167 71° East 470 541 28,000 2,400 Climbing Toronto Center
18:04 43.7833 -78.4333 69° East 490 564 29,000 500 Climbing Toronto Center
18:05 43.8333 -78.2500 69° East 500 575 29,000  Level Toronto Center
18:06 43.8833 -78.0833 67° East 500 575 29,000  Level Toronto Center
18:07 43.9333 -77.9000 69° East 500 575 29,000  Level Toronto Center
18:08 43.9833 -77.7167 69° East 500 575 29,000  Level Toronto Center
18:09 44.0333 -77.5167 71° East 510 587 29,000  Level Toronto Center
18:10 44.0833 -77.3500 67° East 510 587 29,000  Level Toronto Center
18:11 44.1667 -77.1667 58° Northeast 510 587 29,000  Level Toronto Center
18:12 44.2500 -77.0000 55° Northeast 520 598 29,000  Level Toronto Center
18:13 44.3333 -76.8333 55° Northeast 530 610 29,000  Level Toronto Center
18:14 44.4167 -76.6667 55° Northeast 530 610 29,000  Level Toronto Center
18:15 44.4833 -76.4833 63° Northeast 530 610 29,000  Level Toronto Center
18:16 44.5667 -76.3167 55° Northeast 540 621 29,000  Level Toronto Center
18:17 44.6500 -76.1167 60° Northeast 550 633 29,000  Level Toronto Center
18:18 44.7000 -75.9333 69° East 550 633 29,000  Level Toronto Center
18:19 44.7500 -75.7333 71° East 550 633 29,000  Level Toronto Center
18:20 44.8000 -75.5167 72° East 550 633 29,000  Level Toronto Center
18:21 44.8500 -75.3500 67° East 540 621 29,000 -517 Level Montreal Center
18:22 44.9000 -75.1667 69° East 540 621 28,000 -1,200 Descending Montreal Center
18:23 44.9500 -74.9667 70° East 540 621 26,600 -1,450 Descending Montreal Center
18:24 45.0333 -74.7833 57° Northeast 530 610 25,100 -1,550 Descending Montreal Center
18:25 45.1000 -74.6167 60° Northeast 450 518 23,500 -1,750 Descending Montreal Center
18:26 45.1667 -74.5000 51° Northeast 430 495 21,600 -1,850 Descending Montreal Center
18:27 45.2333 -74.3500 58° Northeast 410 472 19,800 -1,550 Descending Montreal Center
18:28 45.2833 -74.2000 65° Northeast 370 426 18,500 -1,250 Descending Montreal Center
18:29 45.3333 -74.1167 50° Northeast 340 391 17,300 -1,350 Descending Montreal Center
18:30 45.3833 -74.0167 55° Northeast 310 357 15,800 -1,350 Descending Montreal Center
18:31 45.4333 -73.9167 55° Northeast 300 345 14,600 -1,250 Descending Montreal Center
18:32 45.4833 -73.8333 49° Northeast 280 322 13,300 -1,250 Descending Montreal Center
18:33 45.4500 -73.7167 112° Southeast 280 322 12,100 -1,300 Descending Montreal Center
18:34 45.4000 -73.6333 130° Southeast 260 299 10,700 -1,500 Descending Montreal Center
18:35 45.4333 -73.5500 60° Northeast 240 276 9,100 -1,450 Descending Montreal Center
18:36 45.4833 -73.4833 43° Northeast 240 276 7,800 -1,059 Descending Montreal Center
18:37 45.5000 -73.4167 70° East 220 253 7,000 -504 Descending Montreal Center
18:38 45.4833 -73.3333 106° East 220 253 6,800 -500 Descending Montreal Center
18:39 45.5333 -73.3333 360° North 190 219 6,000 -400 Descending Montreal Center
18:40 45.5667 -73.3667 325° Northwest 190 219 6,000  Level Montreal Center
18:41 45.6167 -73.3167 35° Northeast 220 253 6,000 -450 Level Montreal Center
18:42 45.6667 -73.3333 347° North 200 230 5,100 -500 Descending Montreal Center
18:43 45.6667 -73.4000 270° West 200 230 5,000 -300 Descending Montreal Center
18:44 45.6333 -73.4833 240° Southwest 200 230 4,500 -545 Descending Montreal Center
18:45 45.6000 -73.5167 215° Southwest 190 219 3,900 -800 Descending Montreal Center
18:46 45.5667 -73.5667 226° Southwest 150 173 2,900 -908 Descending Montreal Center
18:47 45.5333 -73.6167 226° Southwest 140 161 2,100 -800 Descending Montreal Center
18:48 45.5000 -73.6500 215° Southwest 140 161 1,300 -800 Descending Montreal Center
18:49 45.4667 -73.7000 226° Southwest 140 161 500 -595 Descending Montreal Center
18:50 45.4500 -73.7167 215° Southwest 100 115 100 -198 Descending Montreal Center
18:51 45.4500 -73.7167 215° Southwest 20 23 100  Level Montreal Center
18:53 45.4500 -73.7167 90° East 20 23 100  Level Montreal Center
18:56 45.4667 -73.7167 360° North 20 23 100  Level Montreal Center